sensor_id;sensor_type;location;lat;lon;timestamp;P1;durP1;ratioP1;P2;durP2;ratioP2
66521;SDS011;53349;53.538;8.584;2023-06-04T00:00:54;5.00;;;1.97;;
66521;SDS011;53349;53.538;8.584;2023-06-04T00:03:19;6.53;;;2.20;;
66521;SDS011;53349;53.538;8.584;2023-06-04T00:05:44;7.60;;;2.07;;
66521;SDS011;53349;53.538;8.584;2023-06-04T00:08:10;6.37;;;2.13;;
66521;SDS011;53349;53.538;8.584;2023-06-04T00:10:35;7.13;;;2.17;;
66521;SDS011;53349;53.538;8.584;2023-06-04T00:13:00;6.70;;;2.20;;
66521;SDS011;53349;53.538;8.584;2023-06-04T00:15:26;7.67;;;1.83;;
66521;SDS011;53349;53.538;8.584;2023-06-04T00:17:57;6.72;;;2.33;;
66521;SDS011;53349;53.538;8.584;2023-06-04T00:20:24;6.50;;;1.92;;
66521;SDS011;53349;53.538;8.584;2023-06-04T00:22:49;6.70;;;1.90;;
66521;SDS011;53349;53.538;8.584;2023-06-04T00:25:21;5.82;;;2.00;;
66521;SDS011;53349;53.538;8.584;2023-06-04T00:27:47;6.03;;;1.93;;
66521;SDS011;53349;53.538;8.584;2023-06-04T00:30:12;8.55;;;2.10;;
66521;SDS011;53349;53.538;8.584;2023-06-04T00:32:38;6.97;;;2.15;;
66521;SDS011;53349;53.538;8.584;2023-06-04T00:35:04;8.25;;;2.00;;
66521;SDS011;53349;53.538;8.584;2023-06-04T00:37:30;6.93;;;1.77;;
66521;SDS011;53349;53.538;8.584;2023-06-04T00:39:56;6.75;;;2.00;;
66521;SDS011;53349;53.538;8.584;2023-06-04T00:42:21;8.30;;;2.30;;
66521;SDS011;53349;53.538;8.584;2023-06-04T00:44:47;8.25;;;1.90;;
66521;SDS011;53349;53.538;8.584;2023-06-04T00:47:14;6.38;;;2.20;;
66521;SDS011;53349;53.538;8.584;2023-06-04T00:49:42;5.90;;;1.88;;
66521;SDS011;53349;53.538;8.584;2023-06-04T00:52:14;5.57;;;1.90;;
66521;SDS011;53349;53.538;8.584;2023-06-04T00:54:41;5.72;;;2.30;;
66521;SDS011;53349;53.538;8.584;2023-06-04T00:57:08;5.63;;;2.10;;
66521;SDS011;53349;53.538;8.584;2023-06-04T00:59:35;7.85;;;2.00;;
66521;SDS011;53349;53.538;8.584;2023-06-04T01:02:06;6.57;;;2.25;;
66521;SDS011;53349;53.538;8.584;2023-06-04T01:04:57;5.77;;;1.67;;
66521;SDS011;53349;53.538;8.584;2023-06-04T01:07:33;7.15;;;2.50;;
66521;SDS011;53349;53.538;8.584;2023-06-04T01:10:00;7.20;;;2.40;;
66521;SDS011;53349;53.538;8.584;2023-06-04T01:12:27;7.43;;;2.10;;
66521;SDS011;53349;53.538;8.584;2023-06-04T01:14:55;8.20;;;2.23;;
66521;SDS011;53349;53.538;8.584;2023-06-04T01:20:29;5.38;;;1.88;;
66521;SDS011;53349;53.538;8.584;2023-06-04T01:23:10;6.40;;;1.80;;
66521;SDS011;53349;53.538;8.584;2023-06-04T01:25:41;8.40;;;2.00;;
66521;SDS011;53349;53.538;8.584;2023-06-04T01:28:07;3.78;;;1.73;;
66521;SDS011;53349;53.538;8.584;2023-06-04T01:30:35;8.63;;;2.20;;
66521;SDS011;53349;53.538;8.584;2023-06-04T01:33:04;5.45;;;1.83;;
66521;SDS011;53349;53.538;8.584;2023-06-04T01:35:30;5.67;;;2.00;;
66521;SDS011;53349;53.538;8.584;2023-06-04T01:37:55;5.70;;;2.10;;
66521;SDS011;53349;53.538;8.584;2023-06-04T01:40:21;5.40;;;2.17;;
66521;SDS011;53349;53.538;8.584;2023-06-04T01:42:48;7.28;;;2.40;;
66521;SDS011;53349;53.538;8.584;2023-06-04T01:45:13;6.73;;;2.10;;
66521;SDS011;53349;53.538;8.584;2023-06-04T01:47:39;6.93;;;1.93;;
66521;SDS011;53349;53.538;8.584;2023-06-04T01:50:05;6.28;;;1.90;;
66521;SDS011;53349;53.538;8.584;2023-06-04T01:52:32;7.47;;;2.10;;
66521;SDS011;53349;53.538;8.584;2023-06-04T01:54:58;4.90;;;2.20;;
66521;SDS011;53349;53.538;8.584;2023-06-04T01:57:23;7.30;;;1.90;;
66521;SDS011;53349;53.538;8.584;2023-06-04T01:59:49;7.37;;;2.10;;
66521;SDS011;53349;53.538;8.584;2023-06-04T02:02:14;7.90;;;2.50;;
66521;SDS011;53349;53.538;8.584;2023-06-04T02:04:40;6.00;;;2.27;;
66521;SDS011;53349;53.538;8.584;2023-06-04T02:07:10;8.38;;;2.10;;
66521;SDS011;53349;53.538;8.584;2023-06-04T02:09:36;6.03;;;2.20;;
66521;SDS011;53349;53.538;8.584;2023-06-04T02:12:03;8.32;;;2.40;;
66521;SDS011;53349;53.538;8.584;2023-06-04T02:14:28;9.10;;;2.22;;
66521;SDS011;53349;53.538;8.584;2023-06-04T02:16:54;8.50;;;2.20;;
66521;SDS011;53349;53.538;8.584;2023-06-04T02:19:19;8.13;;;2.37;;
66521;SDS011;53349;53.538;8.584;2023-06-04T02:21:47;5.17;;;2.20;;
66521;SDS011;53349;53.538;8.584;2023-06-04T02:24:15;4.90;;;2.45;;
66521;SDS011;53349;53.538;8.584;2023-06-04T02:26:41;7.68;;;2.67;;
66521;SDS011;53349;53.538;8.584;2023-06-04T02:29:07;6.97;;;2.40;;
66521;SDS011;53349;53.538;8.584;2023-06-04T02:31:32;7.55;;;2.80;;
66521;SDS011;53349;53.538;8.584;2023-06-04T02:33:57;9.90;;;2.50;;
66521;SDS011;53349;53.538;8.584;2023-06-04T02:36:23;7.47;;;2.70;;
66521;SDS011;53349;53.538;8.584;2023-06-04T02:38:48;6.33;;;2.70;;
66521;SDS011;53349;53.538;8.584;2023-06-04T02:41:14;5.47;;;2.72;;
66521;SDS011;53349;53.538;8.584;2023-06-04T02:43:40;7.33;;;2.83;;
66521;SDS011;53349;53.538;8.584;2023-06-04T02:46:12;7.77;;;2.70;;
66521;SDS011;53349;53.538;8.584;2023-06-04T02:48:42;7.13;;;3.05;;
66521;SDS011;53349;53.538;8.584;2023-06-04T02:51:07;8.88;;;3.03;;
66521;SDS011;53349;53.538;8.584;2023-06-04T02:53:33;7.67;;;2.80;;
66521;SDS011;53349;53.538;8.584;2023-06-04T02:55:59;7.67;;;3.30;;
66521;SDS011;53349;53.538;8.584;2023-06-04T02:58:26;7.53;;;2.53;;
66521;SDS011;53349;53.538;8.584;2023-06-04T03:00:52;8.90;;;2.63;;
66521;SDS011;53349;53.538;8.584;2023-06-04T03:03:18;8.27;;;2.83;;
66521;SDS011;53349;53.538;8.584;2023-06-04T03:05:44;8.37;;;2.40;;
66521;SDS011;53349;53.538;8.584;2023-06-04T03:08:09;9.17;;;2.50;;
66521;SDS011;53349;53.538;8.584;2023-06-04T03:10:38;8.93;;;2.70;;
66521;SDS011;53349;53.538;8.584;2023-06-04T03:13:03;11.90;;;2.57;;
66521;SDS011;53349;53.538;8.584;2023-06-04T03:15:28;6.78;;;2.70;;
66521;SDS011;53349;53.538;8.584;2023-06-04T03:17:54;5.43;;;2.90;;
66521;SDS011;53349;53.538;8.584;2023-06-04T03:20:19;8.63;;;2.77;;
66521;SDS011;53349;53.538;8.584;2023-06-04T03:22:46;9.45;;;2.75;;
66521;SDS011;53349;53.538;8.584;2023-06-04T03:25:17;11.20;;;2.90;;
66521;SDS011;53349;53.538;8.584;2023-06-04T03:27:42;7.70;;;2.80;;
66521;SDS011;53349;53.538;8.584;2023-06-04T03:30:07;10.00;;;2.70;;
66521;SDS011;53349;53.538;8.584;2023-06-04T03:32:36;7.43;;;2.78;;
66521;SDS011;53349;53.538;8.584;2023-06-04T03:35:02;7.43;;;3.23;;
66521;SDS011;53349;53.538;8.584;2023-06-04T03:37:27;6.30;;;2.90;;
66521;SDS011;53349;53.538;8.584;2023-06-04T03:40:00;8.27;;;3.10;;
66521;SDS011;53349;53.538;8.584;2023-06-04T03:42:26;8.30;;;2.83;;
66521;SDS011;53349;53.538;8.584;2023-06-04T03:44:53;7.85;;;3.00;;
66521;SDS011;53349;53.538;8.584;2023-06-04T03:47:19;5.38;;;2.85;;
66521;SDS011;53349;53.538;8.584;2023-06-04T03:49:44;8.57;;;2.57;;
66521;SDS011;53349;53.538;8.584;2023-06-04T03:52:10;8.73;;;3.00;;
66521;SDS011;53349;53.538;8.584;2023-06-04T03:54:36;9.80;;;2.63;;
66521;SDS011;53349;53.538;8.584;2023-06-04T03:57:01;6.47;;;2.40;;
66521;SDS011;53349;53.538;8.584;2023-06-04T03:59:26;7.17;;;2.37;;
66521;SDS011;53349;53.538;8.584;2023-06-04T04:01:52;9.03;;;3.00;;
66521;SDS011;53349;53.538;8.584;2023-06-04T04:04:17;8.60;;;2.73;;
66521;SDS011;53349;53.538;8.584;2023-06-04T04:06:43;8.10;;;2.53;;
66521;SDS011;53349;53.538;8.584;2023-06-04T04:09:08;7.95;;;2.53;;
66521;SDS011;53349;53.538;8.584;2023-06-04T04:11:33;5.38;;;2.30;;
66521;SDS011;53349;53.538;8.584;2023-06-04T04:13:58;8.20;;;2.70;;
66521;SDS011;53349;53.538;8.584;2023-06-04T04:16:24;6.63;;;2.60;;
66521;SDS011;53349;53.538;8.584;2023-06-04T04:18:50;5.82;;;2.45;;
66521;SDS011;53349;53.538;8.584;2023-06-04T04:21:19;6.18;;;2.35;;
66521;SDS011;53349;53.538;8.584;2023-06-04T04:23:45;5.30;;;2.28;;
66521;SDS011;53349;53.538;8.584;2023-06-04T04:26:13;6.28;;;2.50;;
66521;SDS011;53349;53.538;8.584;2023-06-04T04:28:38;5.43;;;2.07;;
66521;SDS011;53349;53.538;8.584;2023-06-04T04:31:04;11.43;;;2.50;;
66521;SDS011;53349;53.538;8.584;2023-06-04T04:33:29;9.80;;;2.47;;
66521;SDS011;53349;53.538;8.584;2023-06-04T04:35:54;9.07;;;2.30;;
66521;SDS011;53349;53.538;8.584;2023-06-04T04:38:20;8.13;;;2.30;;
66521;SDS011;53349;53.538;8.584;2023-06-04T04:40:45;7.17;;;2.20;;
66521;SDS011;53349;53.538;8.584;2023-06-04T04:43:11;5.55;;;1.88;;
66521;SDS011;53349;53.538;8.584;2023-06-04T04:45:36;5.63;;;1.90;;
66521;SDS011;53349;53.538;8.584;2023-06-04T04:48:02;7.60;;;2.20;;
66521;SDS011;53349;53.538;8.584;2023-06-04T04:50:28;9.13;;;2.47;;
66521;SDS011;53349;53.538;8.584;2023-06-04T04:52:56;6.05;;;2.05;;
66521;SDS011;53349;53.538;8.584;2023-06-04T04:55:21;7.55;;;2.30;;
66521;SDS011;53349;53.538;8.584;2023-06-04T04:57:48;6.85;;;2.17;;
66521;SDS011;53349;53.538;8.584;2023-06-04T05:00:13;5.37;;;2.00;;
66521;SDS011;53349;53.538;8.584;2023-06-04T05:02:39;9.13;;;2.22;;
66521;SDS011;53349;53.538;8.584;2023-06-04T05:05:05;6.28;;;2.45;;
66521;SDS011;53349;53.538;8.584;2023-06-04T05:07:31;7.00;;;1.77;;
66521;SDS011;53349;53.538;8.584;2023-06-04T05:09:58;7.07;;;1.88;;
66521;SDS011;53349;53.538;8.584;2023-06-04T05:12:26;6.88;;;2.00;;
66521;SDS011;53349;53.538;8.584;2023-06-04T05:14:52;8.50;;;2.40;;
66521;SDS011;53349;53.538;8.584;2023-06-04T05:17:18;10.63;;;2.30;;
66521;SDS011;53349;53.538;8.584;2023-06-04T05:19:45;8.13;;;2.05;;
66521;SDS011;53349;53.538;8.584;2023-06-04T05:22:13;7.68;;;2.22;;
66521;SDS011;53349;53.538;8.584;2023-06-04T05:24:39;6.82;;;1.77;;
66521;SDS011;53349;53.538;8.584;2023-06-04T05:27:04;9.37;;;2.00;;
66521;SDS011;53349;53.538;8.584;2023-06-04T05:29:29;6.60;;;2.00;;
66521;SDS011;53349;53.538;8.584;2023-06-04T05:31:57;5.28;;;1.80;;
66521;SDS011;53349;53.538;8.584;2023-06-04T05:34:26;7.45;;;1.95;;
66521;SDS011;53349;53.538;8.584;2023-06-04T05:36:51;7.67;;;2.13;;
66521;SDS011;53349;53.538;8.584;2023-06-04T05:39:18;7.68;;;2.30;;
66521;SDS011;53349;53.538;8.584;2023-06-04T05:41:43;6.43;;;2.13;;
66521;SDS011;53349;53.538;8.584;2023-06-04T05:44:09;6.63;;;1.90;;
66521;SDS011;53349;53.538;8.584;2023-06-04T05:46:35;9.73;;;2.25;;
66521;SDS011;53349;53.538;8.584;2023-06-04T05:49:01;11.13;;;2.40;;
66521;SDS011;53349;53.538;8.584;2023-06-04T05:51:27;6.23;;;1.90;;
66521;SDS011;53349;53.538;8.584;2023-06-04T05:53:54;5.45;;;1.80;;
66521;SDS011;53349;53.538;8.584;2023-06-04T05:56:19;6.73;;;2.00;;
66521;SDS011;53349;53.538;8.584;2023-06-04T05:58:50;9.60;;;2.13;;
66521;SDS011;53349;53.538;8.584;2023-06-04T06:01:16;7.23;;;2.17;;
66521;SDS011;53349;53.538;8.584;2023-06-04T06:03:42;6.15;;;2.08;;
66521;SDS011;53349;53.538;8.584;2023-06-04T06:06:09;6.13;;;2.00;;
66521;SDS011;53349;53.538;8.584;2023-06-04T06:08:35;7.80;;;1.80;;
66521;SDS011;53349;53.538;8.584;2023-06-04T06:11:00;8.33;;;2.17;;
66521;SDS011;53349;53.538;8.584;2023-06-04T06:13:25;6.33;;;1.87;;
66521;SDS011;53349;53.538;8.584;2023-06-04T06:15:51;9.37;;;2.03;;
66521;SDS011;53349;53.538;8.584;2023-06-04T06:18:16;6.27;;;1.70;;
66521;SDS011;53349;53.538;8.584;2023-06-04T06:20:41;7.50;;;2.00;;
66521;SDS011;53349;53.538;8.584;2023-06-04T06:23:08;6.05;;;1.77;;
66521;SDS011;53349;53.538;8.584;2023-06-04T06:25:33;7.20;;;1.50;;
66521;SDS011;53349;53.538;8.584;2023-06-04T06:27:59;4.72;;;1.52;;
66521;SDS011;53349;53.538;8.584;2023-06-04T06:30:25;5.55;;;1.55;;
66521;SDS011;53349;53.538;8.584;2023-06-04T06:32:51;6.63;;;1.70;;
66521;SDS011;53349;53.538;8.584;2023-06-04T06:35:17;4.07;;;1.63;;
66521;SDS011;53349;53.538;8.584;2023-06-04T06:37:44;5.32;;;1.50;;
66521;SDS011;53349;53.538;8.584;2023-06-04T06:40:12;6.72;;;1.60;;
66521;SDS011;53349;53.538;8.584;2023-06-04T06:42:37;6.13;;;1.70;;
66521;SDS011;53349;53.538;8.584;2023-06-04T06:45:03;6.17;;;1.53;;
66521;SDS011;53349;53.538;8.584;2023-06-04T06:47:29;5.85;;;1.77;;
66521;SDS011;53349;53.538;8.584;2023-06-04T06:49:55;8.27;;;2.07;;
66521;SDS011;53349;53.538;8.584;2023-06-04T06:52:21;7.80;;;1.63;;
66521;SDS011;53349;53.538;8.584;2023-06-04T06:54:46;4.40;;;1.47;;
66521;SDS011;53349;53.538;8.584;2023-06-04T06:57:11;5.93;;;1.60;;
66521;SDS011;53349;53.538;8.584;2023-06-04T06:59:37;5.10;;;1.70;;
66521;SDS011;53349;53.538;8.584;2023-06-04T07:02:03;4.23;;;1.43;;
66521;SDS011;53349;53.538;8.584;2023-06-04T07:04:30;3.88;;;1.40;;
66521;SDS011;53349;53.538;8.584;2023-06-04T07:06:55;6.73;;;1.60;;
66521;SDS011;53349;53.538;8.584;2023-06-04T07:09:21;6.10;;;2.03;;
66521;SDS011;53349;53.538;8.584;2023-06-04T07:11:46;6.10;;;1.90;;
66521;SDS011;53349;53.538;8.584;2023-06-04T07:14:11;5.90;;;1.67;;
66521;SDS011;53349;53.538;8.584;2023-06-04T07:16:38;7.10;;;1.50;;
66521;SDS011;53349;53.538;8.584;2023-06-04T07:19:03;4.50;;;1.60;;
66521;SDS011;53349;53.538;8.584;2023-06-04T07:21:30;5.90;;;1.63;;
66521;SDS011;53349;53.538;8.584;2023-06-04T07:23:59;7.05;;;1.95;;
66521;SDS011;53349;53.538;8.584;2023-06-04T07:26:31;5.63;;;1.65;;
66521;SDS011;53349;53.538;8.584;2023-06-04T07:28:59;4.38;;;1.70;;
66521;SDS011;53349;53.538;8.584;2023-06-04T07:31:24;6.33;;;1.87;;
66521;SDS011;53349;53.538;8.584;2023-06-04T07:33:55;5.80;;;1.88;;
66521;SDS011;53349;53.538;8.584;2023-06-04T07:36:20;6.03;;;1.80;;
66521;SDS011;53349;53.538;8.584;2023-06-04T07:38:48;7.07;;;1.90;;
66521;SDS011;53349;53.538;8.584;2023-06-04T07:41:14;5.40;;;1.70;;
66521;SDS011;53349;53.538;8.584;2023-06-04T07:43:40;8.32;;;1.95;;
66521;SDS011;53349;53.538;8.584;2023-06-04T07:46:13;6.00;;;1.80;;
66521;SDS011;53349;53.538;8.584;2023-06-04T07:48:40;5.68;;;1.80;;
66521;SDS011;53349;53.538;8.584;2023-06-04T07:51:06;5.68;;;1.60;;
66521;SDS011;53349;53.538;8.584;2023-06-04T07:53:32;5.93;;;1.63;;
66521;SDS011;53349;53.538;8.584;2023-06-04T07:55:57;8.30;;;1.90;;
66521;SDS011;53349;53.538;8.584;2023-06-04T07:58:24;4.95;;;1.65;;
66521;SDS011;53349;53.538;8.584;2023-06-04T08:00:50;5.15;;;1.50;;
66521;SDS011;53349;53.538;8.584;2023-06-04T08:03:18;5.35;;;1.80;;
66521;SDS011;53349;53.538;8.584;2023-06-04T08:05:43;4.82;;;1.70;;
66521;SDS011;53349;53.538;8.584;2023-06-04T08:08:08;4.10;;;1.47;;
66521;SDS011;53349;53.538;8.584;2023-06-04T08:10:34;4.40;;;1.53;;
66521;SDS011;53349;53.538;8.584;2023-06-04T08:12:59;4.17;;;1.37;;
66521;SDS011;53349;53.538;8.584;2023-06-04T08:15:25;8.00;;;1.80;;
66521;SDS011;53349;53.538;8.584;2023-06-04T08:17:51;8.43;;;1.90;;
66521;SDS011;53349;53.538;8.584;2023-06-04T08:20:16;4.83;;;1.40;;
66521;SDS011;53349;53.538;8.584;2023-06-04T08:22:44;4.75;;;1.35;;
66521;SDS011;53349;53.538;8.584;2023-06-04T08:25:10;5.27;;;1.80;;
66521;SDS011;53349;53.538;8.584;2023-06-04T08:27:36;7.38;;;1.90;;
66521;SDS011;53349;53.538;8.584;2023-06-04T08:30:03;4.90;;;1.88;;
66521;SDS011;53349;53.538;8.584;2023-06-04T08:32:30;8.45;;;1.75;;
66521;SDS011;53349;53.538;8.584;2023-06-04T08:34:58;6.25;;;1.70;;
66521;SDS011;53349;53.538;8.584;2023-06-04T08:37:23;5.03;;;1.60;;
66521;SDS011;53349;53.538;8.584;2023-06-04T08:39:48;6.43;;;1.60;;
66521;SDS011;53349;53.538;8.584;2023-06-04T08:42:20;5.65;;;1.55;;
66521;SDS011;53349;53.538;8.584;2023-06-04T08:44:59;4.78;;;1.60;;
66521;SDS011;53349;53.538;8.584;2023-06-04T08:47:27;5.77;;;1.60;;
66521;SDS011;53349;53.538;8.584;2023-06-04T08:49:54;4.47;;;1.38;;
66521;SDS011;53349;53.538;8.584;2023-06-04T08:52:25;5.55;;;1.50;;
66521;SDS011;53349;53.538;8.584;2023-06-04T08:54:50;4.53;;;1.57;;
66521;SDS011;53349;53.538;8.584;2023-06-04T08:57:18;5.53;;;1.50;;
66521;SDS011;53349;53.538;8.584;2023-06-04T08:59:45;4.53;;;1.38;;
66521;SDS011;53349;53.538;8.584;2023-06-04T09:02:11;5.70;;;1.40;;
66521;SDS011;53349;53.538;8.584;2023-06-04T09:04:38;4.82;;;1.55;;
66521;SDS011;53349;53.538;8.584;2023-06-04T09:07:05;4.35;;;1.60;;
66521;SDS011;53349;53.538;8.584;2023-06-04T09:09:31;4.40;;;1.43;;
66521;SDS011;53349;53.538;8.584;2023-06-04T09:12:02;5.07;;;1.50;;
66521;SDS011;53349;53.538;8.584;2023-06-04T09:14:29;5.05;;;1.67;;
66521;SDS011;53349;53.538;8.584;2023-06-04T09:16:55;5.27;;;1.50;;
66521;SDS011;53349;53.538;8.584;2023-06-04T09:19:21;5.03;;;1.60;;
66521;SDS011;53349;53.538;8.584;2023-06-04T09:24:23;5.35;;;1.80;;
66521;SDS011;53349;53.538;8.584;2023-06-04T09:26:51;4.88;;;1.52;;
66521;SDS011;53349;53.538;8.584;2023-06-04T09:29:17;7.13;;;1.60;;
66521;SDS011;53349;53.538;8.584;2023-06-04T09:31:46;4.60;;;1.50;;
66521;SDS011;53349;53.538;8.584;2023-06-04T09:34:12;3.77;;;1.30;;
66521;SDS011;53349;53.538;8.584;2023-06-04T09:36:38;4.65;;;1.60;;
66521;SDS011;53349;53.538;8.584;2023-06-04T09:39:25;4.77;;;1.50;;
66521;SDS011;53349;53.538;8.584;2023-06-04T09:42:00;5.32;;;1.40;;
66521;SDS011;53349;53.538;8.584;2023-06-04T09:44:26;4.75;;;1.60;;
66521;SDS011;53349;53.538;8.584;2023-06-04T09:46:55;5.90;;;1.87;;
66521;SDS011;53349;53.538;8.584;2023-06-04T09:49:21;5.80;;;1.70;;
66521;SDS011;53349;53.538;8.584;2023-06-04T09:51:48;5.37;;;1.90;;
66521;SDS011;53349;53.538;8.584;2023-06-04T09:54:13;5.03;;;1.90;;
66521;SDS011;53349;53.538;8.584;2023-06-04T09:56:39;4.97;;;1.70;;
66521;SDS011;53349;53.538;8.584;2023-06-04T09:59:08;6.95;;;2.00;;
66521;SDS011;53349;53.538;8.584;2023-06-04T10:01:36;5.03;;;1.80;;
66521;SDS011;53349;53.538;8.584;2023-06-04T10:04:06;5.63;;;1.85;;
66521;SDS011;53349;53.538;8.584;2023-06-04T10:06:34;4.43;;;1.77;;
66521;SDS011;53349;53.538;8.584;2023-06-04T10:09:03;4.00;;;1.50;;
66521;SDS011;53349;53.538;8.584;2023-06-04T10:11:34;6.43;;;1.80;;
66521;SDS011;53349;53.538;8.584;2023-06-04T10:14:01;5.18;;;1.80;;
66521;SDS011;53349;53.538;8.584;2023-06-04T10:16:30;5.03;;;2.10;;
66521;SDS011;53349;53.538;8.584;2023-06-04T10:18:57;5.57;;;1.90;;
66521;SDS011;53349;53.538;8.584;2023-06-04T10:21:24;6.97;;;2.10;;
66521;SDS011;53349;53.538;8.584;2023-06-04T10:23:51;4.30;;;1.60;;
66521;SDS011;53349;53.538;8.584;2023-06-04T10:26:16;7.38;;;1.83;;
66521;SDS011;53349;53.538;8.584;2023-06-04T10:28:42;6.40;;;1.87;;
66521;SDS011;53349;53.538;8.584;2023-06-04T10:31:11;6.40;;;2.00;;
66521;SDS011;53349;53.538;8.584;2023-06-04T10:33:39;6.90;;;2.33;;
66521;SDS011;53349;53.538;8.584;2023-06-04T10:36:18;10.32;;;2.15;;
66521;SDS011;53349;53.538;8.584;2023-06-04T10:38:51;3.80;;;1.60;;
66521;SDS011;53349;53.538;8.584;2023-06-04T10:41:23;8.68;;;1.92;;
66521;SDS011;53349;53.538;8.584;2023-06-04T10:43:49;4.70;;;1.63;;
66521;SDS011;53349;53.538;8.584;2023-06-04T10:46:17;5.05;;;1.73;;
66521;SDS011;53349;53.538;8.584;2023-06-04T10:48:47;7.70;;;1.85;;
66521;SDS011;53349;53.538;8.584;2023-06-04T10:51:13;4.93;;;1.37;;
66521;SDS011;53349;53.538;8.584;2023-06-04T10:53:39;5.38;;;1.90;;
66521;SDS011;53349;53.538;8.584;2023-06-04T10:56:05;6.07;;;1.77;;
66521;SDS011;53349;53.538;8.584;2023-06-04T10:58:33;6.33;;;1.60;;
66521;SDS011;53349;53.538;8.584;2023-06-04T11:00:59;4.10;;;1.70;;
66521;SDS011;53349;53.538;8.584;2023-06-04T11:03:36;4.22;;;1.60;;
66521;SDS011;53349;53.538;8.584;2023-06-04T11:06:36;7.15;;;1.80;;
66521;SDS011;53349;53.538;8.584;2023-06-04T11:09:03;6.05;;;1.80;;
66521;SDS011;53349;53.538;8.584;2023-06-04T11:11:29;5.95;;;1.50;;
66521;SDS011;53349;53.538;8.584;2023-06-04T11:13:55;3.60;;;1.43;;
66521;SDS011;53349;53.538;8.584;2023-06-04T11:16:21;4.80;;;1.70;;
66521;SDS011;53349;53.538;8.584;2023-06-04T11:18:56;5.25;;;1.90;;
66521;SDS011;53349;53.538;8.584;2023-06-04T11:21:23;6.30;;;1.70;;
66521;SDS011;53349;53.538;8.584;2023-06-04T11:24:05;5.53;;;2.73;;
66521;SDS011;53349;53.538;8.584;2023-06-04T11:26:35;4.45;;;1.65;;
66521;SDS011;53349;53.538;8.584;2023-06-04T11:29:02;5.25;;;1.80;;
66521;SDS011;53349;53.538;8.584;2023-06-04T11:31:45;5.63;;;1.60;;
66521;SDS011;53349;53.538;8.584;2023-06-04T11:34:23;5.07;;;1.40;;
66521;SDS011;53349;53.538;8.584;2023-06-04T11:36:53;3.13;;;1.30;;
66521;SDS011;53349;53.538;8.584;2023-06-04T11:39:20;5.10;;;1.70;;
66521;SDS011;53349;53.538;8.584;2023-06-04T11:41:46;7.22;;;1.90;;
66521;SDS011;53349;53.538;8.584;2023-06-04T11:44:18;5.03;;;1.80;;
66521;SDS011;53349;53.538;8.584;2023-06-04T11:46:44;6.00;;;1.85;;
66521;SDS011;53349;53.538;8.584;2023-06-04T11:49:16;4.63;;;1.47;;
66521;SDS011;53349;53.538;8.584;2023-06-04T11:51:46;5.00;;;1.50;;
66521;SDS011;53349;53.538;8.584;2023-06-04T11:54:19;4.15;;;1.40;;
66521;SDS011;53349;53.538;8.584;2023-06-04T11:56:46;4.93;;;1.60;;
66521;SDS011;53349;53.538;8.584;2023-06-04T11:59:15;4.87;;;1.60;;
66521;SDS011;53349;53.538;8.584;2023-06-04T12:01:44;5.68;;;1.80;;
66521;SDS011;53349;53.538;8.584;2023-06-04T12:04:12;7.07;;;1.70;;
66521;SDS011;53349;53.538;8.584;2023-06-04T12:09:22;8.00;;;1.88;;
66521;SDS011;53349;53.538;8.584;2023-06-04T12:11:57;3.97;;;1.73;;
66521;SDS011;53349;53.538;8.584;2023-06-04T12:14:24;7.60;;;2.10;;
66521;SDS011;53349;53.538;8.584;2023-06-04T12:16:56;5.87;;;2.00;;
66521;SDS011;53349;53.538;8.584;2023-06-04T12:19:21;4.75;;;2.13;;
66521;SDS011;53349;53.538;8.584;2023-06-04T12:21:47;6.10;;;1.93;;
66521;SDS011;53349;53.538;8.584;2023-06-04T12:24:24;5.20;;;1.60;;
66521;SDS011;53349;53.538;8.584;2023-06-04T12:26:49;6.90;;;2.03;;
66521;SDS011;53349;53.538;8.584;2023-06-04T12:29:32;5.82;;;2.20;;
66521;SDS011;53349;53.538;8.584;2023-06-04T12:32:02;5.87;;;3.10;;
66521;SDS011;53349;53.538;8.584;2023-06-04T12:34:31;6.03;;;1.90;;
66521;SDS011;53349;53.538;8.584;2023-06-04T12:36:58;5.25;;;1.63;;
66521;SDS011;53349;53.538;8.584;2023-06-04T12:39:23;5.47;;;1.80;;
66521;SDS011;53349;53.538;8.584;2023-06-04T12:41:50;4.43;;;1.60;;
66521;SDS011;53349;53.538;8.584;2023-06-04T12:44:17;5.22;;;1.50;;
66521;SDS011;53349;53.538;8.584;2023-06-04T12:46:43;5.00;;;1.48;;
66521;SDS011;53349;53.538;8.584;2023-06-04T12:49:09;7.57;;;1.65;;
66521;SDS011;53349;53.538;8.584;2023-06-04T12:51:34;7.83;;;2.00;;
66521;SDS011;53349;53.538;8.584;2023-06-04T12:54:00;5.73;;;1.67;;
66521;SDS011;53349;53.538;8.584;2023-06-04T12:56:25;7.13;;;1.83;;
66521;SDS011;53349;53.538;8.584;2023-06-04T12:58:51;4.70;;;1.50;;
66521;SDS011;53349;53.538;8.584;2023-06-04T13:01:17;5.03;;;1.97;;
66521;SDS011;53349;53.538;8.584;2023-06-04T13:03:42;5.00;;;2.30;;
66521;SDS011;53349;53.538;8.584;2023-06-04T13:06:13;5.40;;;1.65;;
66521;SDS011;53349;53.538;8.584;2023-06-04T13:08:39;7.33;;;1.80;;
66521;SDS011;53349;53.538;8.584;2023-06-04T13:11:05;4.55;;;1.60;;
66521;SDS011;53349;53.538;8.584;2023-06-04T13:13:30;5.20;;;1.37;;
66521;SDS011;53349;53.538;8.584;2023-06-04T13:15:55;4.90;;;1.90;;
66521;SDS011;53349;53.538;8.584;2023-06-04T13:18:21;4.55;;;1.65;;
66521;SDS011;53349;53.538;8.584;2023-06-04T13:20:47;5.90;;;1.60;;
66521;SDS011;53349;53.538;8.584;2023-06-04T13:23:12;4.87;;;1.30;;
66521;SDS011;53349;53.538;8.584;2023-06-04T13:25:38;4.80;;;1.57;;
66521;SDS011;53349;53.538;8.584;2023-06-04T13:28:04;6.28;;;1.65;;
66521;SDS011;53349;53.538;8.584;2023-06-04T13:30:30;4.25;;;1.35;;
66521;SDS011;53349;53.538;8.584;2023-06-04T13:32:56;5.97;;;1.50;;
66521;SDS011;53349;53.538;8.584;2023-06-04T13:35:23;7.60;;;1.80;;
66521;SDS011;53349;53.538;8.584;2023-06-04T13:37:48;5.73;;;1.60;;
66521;SDS011;53349;53.538;8.584;2023-06-04T13:40:13;4.80;;;1.43;;
66521;SDS011;53349;53.538;8.584;2023-06-04T13:42:39;3.47;;;1.40;;
66521;SDS011;53349;53.538;8.584;2023-06-04T13:45:04;3.53;;;1.20;;
66521;SDS011;53349;53.538;8.584;2023-06-04T13:47:30;4.20;;;1.57;;
66521;SDS011;53349;53.538;8.584;2023-06-04T13:49:55;4.50;;;1.57;;
66521;SDS011;53349;53.538;8.584;2023-06-04T13:52:21;4.97;;;1.40;;
66521;SDS011;53349;53.538;8.584;2023-06-04T13:54:47;4.22;;;1.48;;
66521;SDS011;53349;53.538;8.584;2023-06-04T13:57:12;5.07;;;1.50;;
66521;SDS011;53349;53.538;8.584;2023-06-04T13:59:38;3.93;;;1.50;;
66521;SDS011;53349;53.538;8.584;2023-06-04T14:02:05;6.47;;;2.00;;
66521;SDS011;53349;53.538;8.584;2023-06-04T14:04:30;4.63;;;1.58;;
66521;SDS011;53349;53.538;8.584;2023-06-04T14:06:57;4.93;;;1.70;;
66521;SDS011;53349;53.538;8.584;2023-06-04T14:09:22;4.03;;;1.50;;
66521;SDS011;53349;53.538;8.584;2023-06-04T14:11:49;8.03;;;1.93;;
66521;SDS011;53349;53.538;8.584;2023-06-04T14:14:14;3.50;;;1.40;;
66521;SDS011;53349;53.538;8.584;2023-06-04T14:16:39;4.33;;;1.83;;
66521;SDS011;53349;53.538;8.584;2023-06-04T14:19:06;4.20;;;1.40;;
66521;SDS011;53349;53.538;8.584;2023-06-04T14:21:31;7.60;;;1.73;;
66521;SDS011;53349;53.538;8.584;2023-06-04T14:23:58;4.20;;;1.48;;
66521;SDS011;53349;53.538;8.584;2023-06-04T14:26:23;5.00;;;1.60;;
66521;SDS011;53349;53.538;8.584;2023-06-04T14:28:51;4.22;;;1.40;;
66521;SDS011;53349;53.538;8.584;2023-06-04T14:31:17;4.95;;;1.75;;
66521;SDS011;53349;53.538;8.584;2023-06-04T14:33:43;3.78;;;1.45;;
66521;SDS011;53349;53.538;8.584;2023-06-04T14:36:09;3.67;;;1.60;;
66521;SDS011;53349;53.538;8.584;2023-06-04T14:38:34;5.50;;;1.50;;
66521;SDS011;53349;53.538;8.584;2023-06-04T14:40:59;4.07;;;1.57;;
66521;SDS011;53349;53.538;8.584;2023-06-04T14:43:25;3.23;;;1.60;;
66521;SDS011;53349;53.538;8.584;2023-06-04T14:45:50;3.80;;;1.70;;
66521;SDS011;53349;53.538;8.584;2023-06-04T14:48:16;5.13;;;1.70;;
66521;SDS011;53349;53.538;8.584;2023-06-04T14:50:43;5.82;;;1.50;;
66521;SDS011;53349;53.538;8.584;2023-06-04T14:53:09;5.83;;;1.87;;
66521;SDS011;53349;53.538;8.584;2023-06-04T14:55:34;5.37;;;2.10;;